Terminal Aerodrome Forecast
Issued by NWS

Home | Current Version | Previous Version | Text Only | Print | Product List | Glossary On
Versions: 1 2 3 4 5 6 7 8 9 10 11 12 13 14
368
FTUS44 KBMX 212341
TAFTCL
TAF
KTCL 212341Z 2200/2224 21005KT P6SM SCT060
     FM220100 00000KT P6SM SCT250
      TEMPO 2210/2213 3SM BR SKC
     FM221500 22004KT P6SM SCT040
     FM222000 22007KT P6SM VCTS BKN040CB BKN100=

USA.gov is the U.S. government's official web portal to all federal, state and local government web resources and services.